Wayne, Ohio
Current Conditions -  °F | °C
As of 3:53 AM on Thursday 23 Oct 2014 (Local Time) from KTDZ Reporting Station
Clear Clear  
Wind Chill: 34°   Ceiling: Unl
Heat Index: 38°   Visibility: 9mi
Dew Point: 35°   Wind: 5mph
Humidity: 89%   Direction: 300°WNW
Pressure: 30.26"   Gusts: NA
Location:  41.3°N, 83.47°W
Report Text: KTDZ 230753Z AUTO 30004KT 9SM CLR 03/02 A3026 RMK AO2 SLP250 T00330017 TSNO
Loading
Personal Weather Stations






























Interactive Weather Map
Tropical Storm Tracking
New forecast layout! Learn more

10-Day Weather Forecast

Advertisements
Track Severe Weather on mobile